sensor_id;sensor_type;location;lat;lon;timestamp;P1;durP1;ratioP1;P2;durP2;ratioP2
18526;SDS011;9393;42.158;24.748;2023-05-17T00:02:45;5.63;;;2.73;;
18526;SDS011;9393;42.158;24.748;2023-05-17T00:05:51;11.43;;;3.00;;
18526;SDS011;9393;42.158;24.748;2023-05-17T00:08:55;6.00;;;3.23;;
18526;SDS011;9393;42.158;24.748;2023-05-17T00:11:59;9.53;;;3.10;;
18526;SDS011;9393;42.158;24.748;2023-05-17T00:15:03;8.07;;;3.20;;
18526;SDS011;9393;42.158;24.748;2023-05-17T00:18:08;5.17;;;2.70;;
18526;SDS011;9393;42.158;24.748;2023-05-17T00:21:14;8.00;;;3.43;;
18526;SDS011;9393;42.158;24.748;2023-05-17T00:24:18;5.17;;;3.03;;
18526;SDS011;9393;42.158;24.748;2023-05-17T00:27:22;6.23;;;2.90;;
18526;SDS011;9393;42.158;24.748;2023-05-17T00:30:26;5.47;;;3.10;;
18526;SDS011;9393;42.158;24.748;2023-05-17T00:33:30;7.90;;;3.33;;
18526;SDS011;9393;42.158;24.748;2023-05-17T00:36:35;5.03;;;3.13;;
18526;SDS011;9393;42.158;24.748;2023-05-17T00:39:39;6.00;;;3.10;;
18526;SDS011;9393;42.158;24.748;2023-05-17T00:42:43;9.93;;;3.87;;
18526;SDS011;9393;42.158;24.748;2023-05-17T00:45:47;6.07;;;3.17;;
18526;SDS011;9393;42.158;24.748;2023-05-17T00:48:52;6.07;;;3.10;;
18526;SDS011;9393;42.158;24.748;2023-05-17T00:51:59;5.60;;;3.80;;
18526;SDS011;9393;42.158;24.748;2023-05-17T00:55:04;7.20;;;3.70;;
18526;SDS011;9393;42.158;24.748;2023-05-17T00:58:09;6.47;;;3.87;;
18526;SDS011;9393;42.158;24.748;2023-05-17T01:01:13;7.97;;;4.20;;
18526;SDS011;9393;42.158;24.748;2023-05-17T01:04:18;8.83;;;4.10;;
18526;SDS011;9393;42.158;24.748;2023-05-17T01:07:24;5.67;;;3.83;;
18526;SDS011;9393;42.158;24.748;2023-05-17T01:10:30;6.67;;;3.73;;
18526;SDS011;9393;42.158;24.748;2023-05-17T01:13:42;6.97;;;3.83;;
18526;SDS011;9393;42.158;24.748;2023-05-17T01:16:55;7.37;;;3.77;;
18526;SDS011;9393;42.158;24.748;2023-05-17T01:20:04;6.83;;;3.67;;
18526;SDS011;9393;42.158;24.748;2023-05-17T01:23:23;9.13;;;4.13;;
18526;SDS011;9393;42.158;24.748;2023-05-17T01:26:37;9.27;;;4.53;;
18526;SDS011;9393;42.158;24.748;2023-05-17T01:29:45;9.10;;;4.53;;
18526;SDS011;9393;42.158;24.748;2023-05-17T01:32:52;9.13;;;4.20;;
18526;SDS011;9393;42.158;24.748;2023-05-17T01:36:00;9.67;;;4.37;;
18526;SDS011;9393;42.158;24.748;2023-05-17T01:39:04;11.23;;;4.90;;
18526;SDS011;9393;42.158;24.748;2023-05-17T01:42:12;7.90;;;4.67;;
18526;SDS011;9393;42.158;24.748;2023-05-17T01:45:23;8.77;;;4.63;;
18526;SDS011;9393;42.158;24.748;2023-05-17T01:48:35;6.87;;;4.40;;
18526;SDS011;9393;42.158;24.748;2023-05-17T01:51:44;9.07;;;4.30;;
18526;SDS011;9393;42.158;24.748;2023-05-17T01:54:52;9.43;;;4.63;;
18526;SDS011;9393;42.158;24.748;2023-05-17T01:58:03;6.80;;;4.57;;
18526;SDS011;9393;42.158;24.748;2023-05-17T02:01:09;14.20;;;4.27;;
18526;SDS011;9393;42.158;24.748;2023-05-17T02:04:17;13.30;;;4.67;;
18526;SDS011;9393;42.158;24.748;2023-05-17T02:07:21;6.27;;;4.30;;
18526;SDS011;9393;42.158;24.748;2023-05-17T02:10:29;12.43;;;4.87;;
18526;SDS011;9393;42.158;24.748;2023-05-17T02:13:34;6.73;;;4.20;;
18526;SDS011;9393;42.158;24.748;2023-05-17T02:16:38;9.73;;;4.77;;
18526;SDS011;9393;42.158;24.748;2023-05-17T02:19:42;11.90;;;4.80;;
18526;SDS011;9393;42.158;24.748;2023-05-17T02:22:46;6.00;;;4.43;;
18526;SDS011;9393;42.158;24.748;2023-05-17T02:25:50;7.03;;;5.10;;
18526;SDS011;9393;42.158;24.748;2023-05-17T02:28:56;13.87;;;5.17;;
18526;SDS011;9393;42.158;24.748;2023-05-17T02:32:00;7.23;;;4.80;;
18526;SDS011;9393;42.158;24.748;2023-05-17T02:35:04;10.77;;;5.73;;
18526;SDS011;9393;42.158;24.748;2023-05-17T02:38:09;8.30;;;4.97;;
18526;SDS011;9393;42.158;24.748;2023-05-17T02:41:15;12.63;;;5.50;;
18526;SDS011;9393;42.158;24.748;2023-05-17T02:44:20;12.53;;;5.77;;
18526;SDS011;9393;42.158;24.748;2023-05-17T02:47:27;12.73;;;5.13;;
18526;SDS011;9393;42.158;24.748;2023-05-17T02:50:31;10.37;;;5.03;;
18526;SDS011;9393;42.158;24.748;2023-05-17T02:53:35;12.03;;;5.00;;
18526;SDS011;9393;42.158;24.748;2023-05-17T02:56:41;7.83;;;4.63;;
18526;SDS011;9393;42.158;24.748;2023-05-17T02:59:46;8.83;;;4.67;;
18526;SDS011;9393;42.158;24.748;2023-05-17T03:02:51;7.77;;;5.13;;
18526;SDS011;9393;42.158;24.748;2023-05-17T03:05:58;10.10;;;5.23;;
18526;SDS011;9393;42.158;24.748;2023-05-17T03:09:03;13.20;;;5.33;;
18526;SDS011;9393;42.158;24.748;2023-05-17T03:12:08;10.20;;;5.33;;
18526;SDS011;9393;42.158;24.748;2023-05-17T03:15:14;13.37;;;5.27;;
18526;SDS011;9393;42.158;24.748;2023-05-17T03:18:19;11.53;;;5.20;;
18526;SDS011;9393;42.158;24.748;2023-05-17T03:21:23;10.53;;;5.37;;
18526;SDS011;9393;42.158;24.748;2023-05-17T03:24:29;9.67;;;5.30;;
18526;SDS011;9393;42.158;24.748;2023-05-17T03:27:34;15.20;;;6.77;;
18526;SDS011;9393;42.158;24.748;2023-05-17T03:30:40;14.87;;;6.07;;
18526;SDS011;9393;42.158;24.748;2023-05-17T03:33:45;8.40;;;5.73;;
18526;SDS011;9393;42.158;24.748;2023-05-17T03:36:49;12.73;;;6.53;;
18526;SDS011;9393;42.158;24.748;2023-05-17T03:39:53;10.80;;;6.30;;
18526;SDS011;9393;42.158;24.748;2023-05-17T03:42:57;12.17;;;6.87;;
18526;SDS011;9393;42.158;24.748;2023-05-17T03:46:03;14.93;;;6.80;;
18526;SDS011;9393;42.158;24.748;2023-05-17T03:49:07;15.43;;;7.07;;
18526;SDS011;9393;42.158;24.748;2023-05-17T03:52:12;15.03;;;7.40;;
18526;SDS011;9393;42.158;24.748;2023-05-17T03:55:16;12.83;;;6.93;;
18526;SDS011;9393;42.158;24.748;2023-05-17T03:58:20;13.77;;;7.23;;
18526;SDS011;9393;42.158;24.748;2023-05-17T04:01:25;13.53;;;7.07;;
18526;SDS011;9393;42.158;24.748;2023-05-17T04:04:29;13.07;;;6.70;;
18526;SDS011;9393;42.158;24.748;2023-05-17T04:07:33;10.67;;;6.97;;
18526;SDS011;9393;42.158;24.748;2023-05-17T04:10:37;11.00;;;6.70;;
18526;SDS011;9393;42.158;24.748;2023-05-17T04:13:43;15.80;;;6.97;;
18526;SDS011;9393;42.158;24.748;2023-05-17T04:16:48;15.03;;;6.47;;
18526;SDS011;9393;42.158;24.748;2023-05-17T04:19:53;11.20;;;6.83;;
18526;SDS011;9393;42.158;24.748;2023-05-17T04:22:57;12.23;;;6.73;;
18526;SDS011;9393;42.158;24.748;2023-05-17T04:26:04;12.00;;;7.00;;
18526;SDS011;9393;42.158;24.748;2023-05-17T04:29:12;13.07;;;7.60;;
18526;SDS011;9393;42.158;24.748;2023-05-17T04:32:18;14.50;;;6.97;;
18526;SDS011;9393;42.158;24.748;2023-05-17T04:35:22;15.27;;;7.30;;
18526;SDS011;9393;42.158;24.748;2023-05-17T04:38:28;16.20;;;7.60;;
18526;SDS011;9393;42.158;24.748;2023-05-17T04:41:33;11.83;;;7.30;;
18526;SDS011;9393;42.158;24.748;2023-05-17T04:44:39;16.10;;;7.73;;
18526;SDS011;9393;42.158;24.748;2023-05-17T04:47:45;18.77;;;8.07;;
18526;SDS011;9393;42.158;24.748;2023-05-17T04:50:51;16.60;;;8.57;;
18526;SDS011;9393;42.158;24.748;2023-05-17T04:53:55;17.63;;;9.20;;
18526;SDS011;9393;42.158;24.748;2023-05-17T04:57:04;17.10;;;9.10;;
18526;SDS011;9393;42.158;24.748;2023-05-17T05:00:31;16.77;;;9.33;;
18526;SDS011;9393;42.158;24.748;2023-05-17T05:03:39;17.13;;;8.73;;
18526;SDS011;9393;42.158;24.748;2023-05-17T05:06:45;15.73;;;8.67;;
18526;SDS011;9393;42.158;24.748;2023-05-17T05:09:50;18.77;;;9.80;;
18526;SDS011;9393;42.158;24.748;2023-05-17T05:12:56;14.87;;;9.67;;
18526;SDS011;9393;42.158;24.748;2023-05-17T05:16:01;16.63;;;10.17;;
18526;SDS011;9393;42.158;24.748;2023-05-17T05:19:07;19.93;;;10.20;;
18526;SDS011;9393;42.158;24.748;2023-05-17T05:22:12;23.80;;;10.30;;
18526;SDS011;9393;42.158;24.748;2023-05-17T05:25:18;17.07;;;10.43;;
18526;SDS011;9393;42.158;24.748;2023-05-17T05:28:22;22.13;;;10.37;;
18526;SDS011;9393;42.158;24.748;2023-05-17T05:31:27;37.43;;;17.47;;
18526;SDS011;9393;42.158;24.748;2023-05-17T05:34:35;27.23;;;13.13;;
18526;SDS011;9393;42.158;24.748;2023-05-17T05:37:41;30.77;;;12.60;;
18526;SDS011;9393;42.158;24.748;2023-05-17T05:40:45;28.93;;;12.90;;
18526;SDS011;9393;42.158;24.748;2023-05-17T05:43:50;24.13;;;12.13;;
18526;SDS011;9393;42.158;24.748;2023-05-17T05:46:54;24.00;;;11.43;;
18526;SDS011;9393;42.158;24.748;2023-05-17T05:50:01;26.27;;;11.27;;
18526;SDS011;9393;42.158;24.748;2023-05-17T05:53:07;22.23;;;10.70;;
18526;SDS011;9393;42.158;24.748;2023-05-17T05:56:24;19.57;;;10.50;;
18526;SDS011;9393;42.158;24.748;2023-05-17T05:59:29;24.50;;;10.27;;
18526;SDS011;9393;42.158;24.748;2023-05-17T06:02:33;20.27;;;9.90;;
18526;SDS011;9393;42.158;24.748;2023-05-17T06:05:39;16.60;;;9.47;;
18526;SDS011;9393;42.158;24.748;2023-05-17T06:08:44;18.23;;;9.40;;
18526;SDS011;9393;42.158;24.748;2023-05-17T06:11:50;22.67;;;9.57;;
18526;SDS011;9393;42.158;24.748;2023-05-17T06:14:55;20.47;;;8.93;;
18526;SDS011;9393;42.158;24.748;2023-05-17T06:17:59;14.73;;;9.00;;
18526;SDS011;9393;42.158;24.748;2023-05-17T06:21:05;15.63;;;9.23;;
18526;SDS011;9393;42.158;24.748;2023-05-17T06:24:09;21.60;;;9.03;;
18526;SDS011;9393;42.158;24.748;2023-05-17T06:27:13;17.40;;;9.90;;
18526;SDS011;9393;42.158;24.748;2023-05-17T06:30:17;14.00;;;8.20;;
18526;SDS011;9393;42.158;24.748;2023-05-17T06:33:21;14.53;;;9.37;;
18526;SDS011;9393;42.158;24.748;2023-05-17T06:36:27;16.80;;;10.17;;
18526;SDS011;9393;42.158;24.748;2023-05-17T06:39:33;15.50;;;10.00;;
18526;SDS011;9393;42.158;24.748;2023-05-17T06:42:37;29.17;;;23.60;;
18526;SDS011;9393;42.158;24.748;2023-05-17T06:45:41;24.97;;;18.67;;
18526;SDS011;9393;42.158;24.748;2023-05-17T06:48:45;21.40;;;12.70;;
18526;SDS011;9393;42.158;24.748;2023-05-17T06:51:53;23.33;;;10.70;;
18526;SDS011;9393;42.158;24.748;2023-05-17T06:55:03;18.67;;;11.03;;
18526;SDS011;9393;42.158;24.748;2023-05-17T06:58:08;18.00;;;10.33;;
18526;SDS011;9393;42.158;24.748;2023-05-17T07:01:12;28.87;;;12.83;;
18526;SDS011;9393;42.158;24.748;2023-05-17T07:04:16;19.80;;;11.43;;
18526;SDS011;9393;42.158;24.748;2023-05-17T07:07:23;22.80;;;12.50;;
18526;SDS011;9393;42.158;24.748;2023-05-17T07:10:27;23.03;;;14.70;;
18526;SDS011;9393;42.158;24.748;2023-05-17T07:13:31;31.23;;;16.10;;
18526;SDS011;9393;42.158;24.748;2023-05-17T07:16:35;39.10;;;24.83;;
18526;SDS011;9393;42.158;24.748;2023-05-17T07:19:39;25.53;;;15.43;;
18526;SDS011;9393;42.158;24.748;2023-05-17T07:22:45;23.23;;;14.70;;
18526;SDS011;9393;42.158;24.748;2023-05-17T07:25:50;26.73;;;13.50;;
18526;SDS011;9393;42.158;24.748;2023-05-17T07:28:54;28.67;;;15.87;;
18526;SDS011;9393;42.158;24.748;2023-05-17T07:31:58;25.67;;;15.23;;
18526;SDS011;9393;42.158;24.748;2023-05-17T07:35:02;23.87;;;13.53;;
18526;SDS011;9393;42.158;24.748;2023-05-17T07:38:08;21.77;;;13.03;;
18526;SDS011;9393;42.158;24.748;2023-05-17T07:41:12;19.77;;;13.70;;
18526;SDS011;9393;42.158;24.748;2023-05-17T07:44:18;24.93;;;12.57;;
18526;SDS011;9393;42.158;24.748;2023-05-17T07:47:22;26.10;;;13.63;;
18526;SDS011;9393;42.158;24.748;2023-05-17T07:50:27;27.57;;;14.73;;
18526;SDS011;9393;42.158;24.748;2023-05-17T07:53:33;31.90;;;19.33;;
18526;SDS011;9393;42.158;24.748;2023-05-17T07:56:37;31.33;;;17.30;;
18526;SDS011;9393;42.158;24.748;2023-05-17T07:59:41;34.07;;;16.63;;
18526;SDS011;9393;42.158;24.748;2023-05-17T08:02:45;27.93;;;17.20;;
18526;SDS011;9393;42.158;24.748;2023-05-17T08:05:49;28.37;;;16.93;;
18526;SDS011;9393;42.158;24.748;2023-05-17T08:08:55;31.23;;;16.83;;
18526;SDS011;9393;42.158;24.748;2023-05-17T08:11:59;28.57;;;17.97;;
18526;SDS011;9393;42.158;24.748;2023-05-17T08:15:03;30.33;;;17.87;;
18526;SDS011;9393;42.158;24.748;2023-05-17T08:18:08;30.07;;;15.83;;
18526;SDS011;9393;42.158;24.748;2023-05-17T08:21:12;31.03;;;16.73;;
18526;SDS011;9393;42.158;24.748;2023-05-17T08:24:18;29.50;;;17.23;;
18526;SDS011;9393;42.158;24.748;2023-05-17T08:27:22;26.30;;;16.10;;
18526;SDS011;9393;42.158;24.748;2023-05-17T08:30:27;28.77;;;16.90;;
18526;SDS011;9393;42.158;24.748;2023-05-17T08:33:32;28.37;;;16.57;;
18526;SDS011;9393;42.158;24.748;2023-05-17T08:36:37;31.07;;;18.63;;
18526;SDS011;9393;42.158;24.748;2023-05-17T08:39:43;31.23;;;20.43;;
18526;SDS011;9393;42.158;24.748;2023-05-17T08:42:47;32.60;;;19.03;;
18526;SDS011;9393;42.158;24.748;2023-05-17T08:45:52;28.93;;;18.23;;
18526;SDS011;9393;42.158;24.748;2023-05-17T08:48:59;32.23;;;18.63;;
18526;SDS011;9393;42.158;24.748;2023-05-17T08:52:05;32.73;;;18.93;;
18526;SDS011;9393;42.158;24.748;2023-05-17T08:55:13;31.80;;;18.40;;
18526;SDS011;9393;42.158;24.748;2023-05-17T08:58:20;30.20;;;17.80;;
18526;SDS011;9393;42.158;24.748;2023-05-17T09:01:28;28.00;;;17.37;;
18526;SDS011;9393;42.158;24.748;2023-05-17T09:04:34;32.60;;;19.07;;
18526;SDS011;9393;42.158;24.748;2023-05-17T09:07:38;32.03;;;17.77;;
18526;SDS011;9393;42.158;24.748;2023-05-17T09:10:44;30.70;;;17.73;;
18526;SDS011;9393;42.158;24.748;2023-05-17T09:13:48;25.27;;;16.07;;
18526;SDS011;9393;42.158;24.748;2023-05-17T09:16:55;24.97;;;16.97;;
18526;SDS011;9393;42.158;24.748;2023-05-17T09:19:59;28.57;;;15.67;;
18526;SDS011;9393;42.158;24.748;2023-05-17T09:23:04;23.73;;;15.67;;
18526;SDS011;9393;42.158;24.748;2023-05-17T09:26:12;25.73;;;15.80;;
18526;SDS011;9393;42.158;24.748;2023-05-17T09:29:17;26.87;;;16.17;;
18526;SDS011;9393;42.158;24.748;2023-05-17T09:32:21;25.57;;;15.27;;
18526;SDS011;9393;42.158;24.748;2023-05-17T09:35:26;27.07;;;17.63;;
18526;SDS011;9393;42.158;24.748;2023-05-17T09:38:31;29.47;;;17.00;;
18526;SDS011;9393;42.158;24.748;2023-05-17T09:41:41;30.40;;;16.93;;
18526;SDS011;9393;42.158;24.748;2023-05-17T09:44:49;42.50;;;19.40;;
18526;SDS011;9393;42.158;24.748;2023-05-17T09:47:55;33.17;;;18.67;;
18526;SDS011;9393;42.158;24.748;2023-05-17T09:51:00;36.13;;;19.97;;
18526;SDS011;9393;42.158;24.748;2023-05-17T09:54:05;35.97;;;21.33;;
18526;SDS011;9393;42.158;24.748;2023-05-17T09:57:10;33.00;;;20.47;;
18526;SDS011;9393;42.158;24.748;2023-05-17T10:00:15;32.17;;;19.93;;
18526;SDS011;9393;42.158;24.748;2023-05-17T10:03:20;35.57;;;20.40;;
18526;SDS011;9393;42.158;24.748;2023-05-17T10:06:25;29.10;;;18.90;;
18526;SDS011;9393;42.158;24.748;2023-05-17T10:09:47;33.83;;;20.13;;
18526;SDS011;9393;42.158;24.748;2023-05-17T10:12:53;29.97;;;19.10;;
18526;SDS011;9393;42.158;24.748;2023-05-17T10:15:58;26.20;;;17.10;;
18526;SDS011;9393;42.158;24.748;2023-05-17T10:19:04;23.80;;;13.20;;
18526;SDS011;9393;42.158;24.748;2023-05-17T10:22:08;21.77;;;12.57;;
18526;SDS011;9393;42.158;24.748;2023-05-17T10:25:19;18.23;;;11.40;;
18526;SDS011;9393;42.158;24.748;2023-05-17T10:28:25;19.60;;;11.33;;
18526;SDS011;9393;42.158;24.748;2023-05-17T10:31:30;20.33;;;11.67;;
18526;SDS011;9393;42.158;24.748;2023-05-17T10:34:36;21.00;;;11.60;;
18526;SDS011;9393;42.158;24.748;2023-05-17T10:37:41;20.60;;;11.77;;
18526;SDS011;9393;42.158;24.748;2023-05-17T10:40:45;16.33;;;12.30;;
18526;SDS011;9393;42.158;24.748;2023-05-17T10:43:52;17.57;;;12.53;;
18526;SDS011;9393;42.158;24.748;2023-05-17T10:46:57;22.70;;;13.80;;
18526;SDS011;9393;42.158;24.748;2023-05-17T10:50:07;23.17;;;14.60;;
18526;SDS011;9393;42.158;24.748;2023-05-17T10:53:14;21.87;;;15.03;;
18526;SDS011;9393;42.158;24.748;2023-05-17T10:56:19;24.07;;;14.23;;
18526;SDS011;9393;42.158;24.748;2023-05-17T10:59:26;24.83;;;14.23;;
18526;SDS011;9393;42.158;24.748;2023-05-17T11:02:33;21.73;;;14.27;;
18526;SDS011;9393;42.158;24.748;2023-05-17T11:05:42;23.83;;;15.10;;
18526;SDS011;9393;42.158;24.748;2023-05-17T11:12:25;17.93;;;12.23;;
18526;SDS011;9393;42.158;24.748;2023-05-17T11:15:35;17.50;;;12.20;;
18526;SDS011;9393;42.158;24.748;2023-05-17T11:18:44;24.60;;;13.87;;
18526;SDS011;9393;42.158;24.748;2023-05-17T11:21:49;21.47;;;14.07;;
18526;SDS011;9393;42.158;24.748;2023-05-17T11:24:55;22.17;;;14.30;;
18526;SDS011;9393;42.158;24.748;2023-05-17T11:28:00;21.90;;;15.00;;
18526;SDS011;9393;42.158;24.748;2023-05-17T11:31:11;22.67;;;14.63;;
18526;SDS011;9393;42.158;24.748;2023-05-17T11:34:15;21.47;;;14.77;;
18526;SDS011;9393;42.158;24.748;2023-05-17T11:37:24;24.93;;;14.07;;
18526;SDS011;9393;42.158;24.748;2023-05-17T11:40:29;23.57;;;14.90;;
18526;SDS011;9393;42.158;24.748;2023-05-17T11:43:35;23.23;;;17.03;;
18526;SDS011;9393;42.158;24.748;2023-05-17T11:46:40;25.33;;;15.33;;
18526;SDS011;9393;42.158;24.748;2023-05-17T11:49:45;25.37;;;16.80;;
18526;SDS011;9393;42.158;24.748;2023-05-17T11:52:57;24.47;;;16.63;;
18526;SDS011;9393;42.158;24.748;2023-05-17T11:56:01;25.93;;;17.90;;
18526;SDS011;9393;42.158;24.748;2023-05-17T11:59:06;24.00;;;18.43;;
18526;SDS011;9393;42.158;24.748;2023-05-17T12:02:12;27.43;;;18.83;;
18526;SDS011;9393;42.158;24.748;2023-05-17T12:05:29;26.20;;;19.27;;
18526;SDS011;9393;42.158;24.748;2023-05-17T12:08:33;28.43;;;19.17;;
18526;SDS011;9393;42.158;24.748;2023-05-17T12:11:38;28.20;;;19.23;;
18526;SDS011;9393;42.158;24.748;2023-05-17T12:14:44;25.40;;;20.07;;
18526;SDS011;9393;42.158;24.748;2023-05-17T12:17:50;27.97;;;20.00;;
18526;SDS011;9393;42.158;24.748;2023-05-17T12:20:57;25.77;;;19.10;;
18526;SDS011;9393;42.158;24.748;2023-05-17T12:24:02;27.00;;;20.13;;
18526;SDS011;9393;42.158;24.748;2023-05-17T12:27:07;32.37;;;21.97;;
18526;SDS011;9393;42.158;24.748;2023-05-17T12:30:14;28.17;;;19.20;;
18526;SDS011;9393;42.158;24.748;2023-05-17T12:33:20;27.00;;;20.30;;
18526;SDS011;9393;42.158;24.748;2023-05-17T12:36:24;30.33;;;22.97;;
18526;SDS011;9393;42.158;24.748;2023-05-17T12:39:31;24.70;;;18.57;;
18526;SDS011;9393;42.158;24.748;2023-05-17T12:42:35;24.00;;;18.67;;
18526;SDS011;9393;42.158;24.748;2023-05-17T12:45:41;29.57;;;19.27;;
18526;SDS011;9393;42.158;24.748;2023-05-17T12:48:48;24.47;;;19.10;;
18526;SDS011;9393;42.158;24.748;2023-05-17T12:51:52;26.53;;;20.20;;
18526;SDS011;9393;42.158;24.748;2023-05-17T12:54:57;29.90;;;20.20;;
18526;SDS011;9393;42.158;24.748;2023-05-17T12:58:02;25.97;;;20.20;;
18526;SDS011;9393;42.158;24.748;2023-05-17T13:01:06;32.07;;;22.97;;
18526;SDS011;9393;42.158;24.748;2023-05-17T13:04:16;39.97;;;28.57;;
18526;SDS011;9393;42.158;24.748;2023-05-17T13:07:21;34.57;;;27.60;;
18526;SDS011;9393;42.158;24.748;2023-05-17T13:10:26;38.13;;;28.53;;
18526;SDS011;9393;42.158;24.748;2023-05-17T13:13:31;35.47;;;27.17;;
18526;SDS011;9393;42.158;24.748;2023-05-17T13:16:36;35.57;;;27.13;;
18526;SDS011;9393;42.158;24.748;2023-05-17T13:19:42;39.73;;;30.50;;
18526;SDS011;9393;42.158;24.748;2023-05-17T13:22:46;36.03;;;28.80;;
18526;SDS011;9393;42.158;24.748;2023-05-17T13:25:51;29.47;;;22.97;;
18526;SDS011;9393;42.158;24.748;2023-05-17T13:28:55;26.90;;;21.13;;
18526;SDS011;9393;42.158;24.748;2023-05-17T13:31:59;27.53;;;21.07;;
18526;SDS011;9393;42.158;24.748;2023-05-17T13:35:05;26.87;;;20.43;;
18526;SDS011;9393;42.158;24.748;2023-05-17T13:38:10;26.83;;;21.60;;
18526;SDS011;9393;42.158;24.748;2023-05-17T13:41:14;23.60;;;18.23;;
18526;SDS011;9393;42.158;24.748;2023-05-17T13:44:18;24.73;;;19.43;;
18526;SDS011;9393;42.158;24.748;2023-05-17T13:47:22;26.37;;;21.10;;
18526;SDS011;9393;42.158;24.748;2023-05-17T13:50:28;24.50;;;18.47;;
18526;SDS011;9393;42.158;24.748;2023-05-17T13:53:32;21.73;;;18.37;;
18526;SDS011;9393;42.158;24.748;2023-05-17T13:56:37;21.17;;;17.37;;
18526;SDS011;9393;42.158;24.748;2023-05-17T13:59:41;23.13;;;19.23;;
18526;SDS011;9393;42.158;24.748;2023-05-17T14:02:46;21.67;;;18.57;;
18526;SDS011;9393;42.158;24.748;2023-05-17T14:05:52;23.50;;;18.70;;
18526;SDS011;9393;42.158;24.748;2023-05-17T14:08:56;26.77;;;21.10;;
18526;SDS011;9393;42.158;24.748;2023-05-17T14:12:02;29.70;;;21.47;;
18526;SDS011;9393;42.158;24.748;2023-05-17T14:15:07;30.87;;;22.70;;
18526;SDS011;9393;42.158;24.748;2023-05-17T14:18:12;32.72;;;24.23;;
18526;SDS011;9393;42.158;24.748;2023-05-17T14:21:18;31.40;;;23.27;;
18526;SDS011;9393;42.158;24.748;2023-05-17T14:24:22;28.90;;;22.93;;
18526;SDS011;9393;42.158;24.748;2023-05-17T14:27:26;31.97;;;22.93;;
18526;SDS011;9393;42.158;24.748;2023-05-17T14:30:30;29.17;;;22.60;;
18526;SDS011;9393;42.158;24.748;2023-05-17T14:33:35;27.63;;;22.63;;
18526;SDS011;9393;42.158;24.748;2023-05-17T14:36:41;31.97;;;22.60;;
18526;SDS011;9393;42.158;24.748;2023-05-17T14:39:45;28.87;;;23.23;;
18526;SDS011;9393;42.158;24.748;2023-05-17T14:43:07;26.93;;;19.93;;
18526;SDS011;9393;42.158;24.748;2023-05-17T14:46:11;25.90;;;20.80;;
18526;SDS011;9393;42.158;24.748;2023-05-17T14:49:15;28.90;;;21.30;;
18526;SDS011;9393;42.158;24.748;2023-05-17T14:52:21;26.97;;;20.40;;
18526;SDS011;9393;42.158;24.748;2023-05-17T14:55:25;24.73;;;19.27;;
18526;SDS011;9393;42.158;24.748;2023-05-17T14:58:29;24.10;;;19.73;;
18526;SDS011;9393;42.158;24.748;2023-05-17T15:01:34;25.63;;;19.83;;
18526;SDS011;9393;42.158;24.748;2023-05-17T15:04:38;25.73;;;19.70;;
18526;SDS011;9393;42.158;24.748;2023-05-17T15:07:44;26.47;;;19.13;;
18526;SDS011;9393;42.158;24.748;2023-05-17T15:10:48;23.97;;;18.43;;
18526;SDS011;9393;42.158;24.748;2023-05-17T15:13:52;22.53;;;15.80;;
18526;SDS011;9393;42.158;24.748;2023-05-17T15:16:57;17.23;;;13.27;;
18526;SDS011;9393;42.158;24.748;2023-05-17T15:20:01;21.37;;;15.07;;
18526;SDS011;9393;42.158;24.748;2023-05-17T15:23:07;25.53;;;15.93;;
18526;SDS011;9393;42.158;24.748;2023-05-17T15:26:11;20.77;;;16.10;;
18526;SDS011;9393;42.158;24.748;2023-05-17T15:29:15;24.50;;;18.80;;
18526;SDS011;9393;42.158;24.748;2023-05-17T15:32:19;24.03;;;17.90;;
18526;SDS011;9393;42.158;24.748;2023-05-17T15:35:24;26.47;;;19.63;;
18526;SDS011;9393;42.158;24.748;2023-05-17T15:38:30;22.23;;;18.23;;
18526;SDS011;9393;42.158;24.748;2023-05-17T15:41:34;24.03;;;18.70;;
18526;SDS011;9393;42.158;24.748;2023-05-17T15:44:38;23.77;;;17.10;;
18526;SDS011;9393;42.158;24.748;2023-05-17T15:47:42;23.67;;;18.70;;
18526;SDS011;9393;42.158;24.748;2023-05-17T15:50:47;25.40;;;19.30;;
18526;SDS011;9393;42.158;24.748;2023-05-17T15:53:53;24.43;;;18.80;;
18526;SDS011;9393;42.158;24.748;2023-05-17T15:56:58;26.47;;;19.53;;
18526;SDS011;9393;42.158;24.748;2023-05-17T16:00:02;24.93;;;20.03;;
18526;SDS011;9393;42.158;24.748;2023-05-17T16:03:07;28.63;;;19.90;;
18526;SDS011;9393;42.158;24.748;2023-05-17T16:06:11;27.00;;;20.47;;
18526;SDS011;9393;42.158;24.748;2023-05-17T16:09:18;25.67;;;20.30;;
18526;SDS011;9393;42.158;24.748;2023-05-17T16:12:22;29.67;;;21.43;;
18526;SDS011;9393;42.158;24.748;2023-05-17T16:15:26;30.30;;;21.07;;
18526;SDS011;9393;42.158;24.748;2023-05-17T16:18:30;28.83;;;21.57;;
18526;SDS011;9393;42.158;24.748;2023-05-17T16:21:35;28.63;;;21.70;;
18526;SDS011;9393;42.158;24.748;2023-05-17T16:24:41;30.93;;;21.50;;
18526;SDS011;9393;42.158;24.748;2023-05-17T16:27:45;30.30;;;22.03;;
18526;SDS011;9393;42.158;24.748;2023-05-17T16:30:50;33.17;;;23.13;;
18526;SDS011;9393;42.158;24.748;2023-05-17T16:33:55;29.80;;;22.47;;
18526;SDS011;9393;42.158;24.748;2023-05-17T16:36:59;31.53;;;22.40;;
18526;SDS011;9393;42.158;24.748;2023-05-17T16:40:07;30.23;;;22.03;;
18526;SDS011;9393;42.158;24.748;2023-05-17T16:43:11;31.10;;;21.70;;
18526;SDS011;9393;42.158;24.748;2023-05-17T16:46:17;30.27;;;22.60;;
18526;SDS011;9393;42.158;24.748;2023-05-17T16:49:25;30.27;;;21.83;;
18526;SDS011;9393;42.158;24.748;2023-05-17T16:52:31;29.97;;;22.67;;
18526;SDS011;9393;42.158;24.748;2023-05-17T16:55:36;32.67;;;22.83;;
18526;SDS011;9393;42.158;24.748;2023-05-17T16:58:40;34.17;;;23.60;;
18526;SDS011;9393;42.158;24.748;2023-05-17T17:01:44;34.97;;;24.33;;
18526;SDS011;9393;42.158;24.748;2023-05-17T17:04:48;28.77;;;22.27;;
18526;SDS011;9393;42.158;24.748;2023-05-17T17:07:53;32.57;;;24.60;;
18526;SDS011;9393;42.158;24.748;2023-05-17T17:10:58;31.83;;;20.80;;
18526;SDS011;9393;42.158;24.748;2023-05-17T17:14:03;25.87;;;18.93;;
18526;SDS011;9393;42.158;24.748;2023-05-17T17:17:07;28.23;;;20.87;;
18526;SDS011;9393;42.158;24.748;2023-05-17T17:20:12;27.30;;;20.10;;
18526;SDS011;9393;42.158;24.748;2023-05-17T17:23:16;30.40;;;21.43;;
18526;SDS011;9393;42.158;24.748;2023-05-17T17:26:21;26.43;;;19.80;;
18526;SDS011;9393;42.158;24.748;2023-05-17T17:29:25;31.93;;;23.37;;
18526;SDS011;9393;42.158;24.748;2023-05-17T17:32:29;29.00;;;20.17;;
18526;SDS011;9393;42.158;24.748;2023-05-17T17:35:34;27.10;;;20.37;;
18526;SDS011;9393;42.158;24.748;2023-05-17T17:38:38;29.63;;;20.80;;
18526;SDS011;9393;42.158;24.748;2023-05-17T17:41:43;27.57;;;20.03;;
18526;SDS011;9393;42.158;24.748;2023-05-17T17:44:47;28.43;;;19.90;;
18526;SDS011;9393;42.158;24.748;2023-05-17T17:47:52;28.73;;;20.30;;
18526;SDS011;9393;42.158;24.748;2023-05-17T17:50:56;30.43;;;20.00;;
18526;SDS011;9393;42.158;24.748;2023-05-17T17:54:00;25.10;;;18.73;;
18526;SDS011;9393;42.158;24.748;2023-05-17T17:57:07;27.33;;;19.60;;
18526;SDS011;9393;42.158;24.748;2023-05-17T18:00:12;25.90;;;19.00;;
18526;SDS011;9393;42.158;24.748;2023-05-17T18:03:17;27.90;;;19.03;;
18526;SDS011;9393;42.158;24.748;2023-05-17T18:06:21;24.00;;;18.40;;
18526;SDS011;9393;42.158;24.748;2023-05-17T18:09:25;26.60;;;18.97;;
18526;SDS011;9393;42.158;24.748;2023-05-17T18:12:31;26.20;;;18.13;;
18526;SDS011;9393;42.158;24.748;2023-05-17T18:15:36;26.27;;;18.60;;
18526;SDS011;9393;42.158;24.748;2023-05-17T18:18:41;25.90;;;18.67;;